ADDS METAR Data INFO
IDs: Format: Raw Decoded Include TAF

Data at: 0054 UTC 22 Oct 2017

KPNM 220035Z AUTO 23006KT 10SM -RA BKN026 OVC036 13/12 A2972 RMK AO2 LTG DSNT S P0003
KPNM 220014Z AUTO 26009G15KT 10SM RA SCT008 BKN018 OVC024 14/12 A2970 RMK AO2 P0003
KPNM 212354Z AUTO 24011G18KT 10SM -VCTSRA SCT011 BKN018 OVC025 17/14 A2967 RMK AO2 LTG DSNT N AND W P0001
KPNM 212335Z AUTO 17010G16KT 10SM -RA BKN026 BKN033 OVC042 19/17 A2964 RMK AO2 LTG DSNT N AND NW P0001
KPNM 212314Z AUTO 14010G18KT 10SM -RA SCT028 BKN037 OVC050 19/17 A2963 RMK AO2 LTG DSNT W THRU N P0001
KPNM 212254Z AUTO 14014G18KT 10SM -VCTSRA SCT033 BKN039 OVC090 19/17 A2963 RMK AO2 LTG DSNT S THRU NW
KPNM 212235Z AUTO 15010G18KT 10SM SCT023 SCT033 BKN047 19/16 A2963 RMK AO2 LTG DSNT NW
KPNM 212214Z AUTO 15010G15KT 10SM VCTS OVC023 19/17 A2963 RMK AO2 LTG DSNT SW THRU NW
KPNM 212155Z AUTO 14011G17KT 10SM OVC023 19/17 A2961 RMK AO2 LTG DSNT SW AND W
KPNM 212134Z AUTO 15017G20KT 10SM OVC021 19/17 A2962 RMK AO2
KPNM 212114Z AUTO 15013G19KT 10SM OVC019 19/17 A2962 RMK AO2
KPNM 212055Z AUTO 15010KT 10SM OVC019 19/17 A2961 RMK AO2
KPNM 212034Z AUTO 15011G17KT 10SM OVC017 19/17 A2961 RMK AO2
KPNM 212014Z AUTO 16015KT 10SM OVC015 19/17 A2961 RMK AO2
KPNM 211955Z AUTO 15011KT 10SM OVC015 19/17 A2962 RMK AO2
KPNM 211934Z AUTO 16011G17KT 10SM OVC015 18/16 A2963 RMK AO2
KPNM 211914Z AUTO 14009G14KT 10SM OVC013 18/16 A2963 RMK AO2
KPNM 211854Z AUTO 14008G14KT 10SM OVC011 18/16 A2963 RMK AO2
KPNM 211834Z AUTO 15010G15KT 10SM OVC011 18/16 A2963 RMK AO2
KPNM 211814Z AUTO 15011G16KT 10SM OVC011 17/16 A2963 RMK AO2
KPNM 211755Z AUTO 15013G19KT 10SM OVC011 17/16 A2964 RMK AO2
KPNM 211734Z AUTO 16011G20KT 10SM OVC011 17/16 A2964 RMK AO2
KPNM 211714Z AUTO 15014G18KT 10SM OVC011 17/16 A2964 RMK AO2
KPNM 211654Z AUTO 15012G18KT 10SM OVC011 17/16 A2964 RMK AO2 P0001
KPNM 211634Z AUTO 14010G14KT 10SM OVC011 16/15 A2964 RMK AO2 P0001
KPNM 211615Z AUTO 14009G14KT 10SM DZ OVC012 16/15 A2965 RMK AO2 LTG DSNT E
KPNM 211554Z AUTO 14011KT 10SM -RA BKN011 OVC014 16/14 A2965 RMK AO2 P0011
KPNM 211534Z AUTO 13008KT 4SM +RA SCT011 BKN014 OVC019 16/14 A2965 RMK AO2 P0010
KPNM 211515Z AUTO 13010KT 7SM RA BKN013 OVC017 16/14 A2965 RMK AO2 P0002
KPNM 211454Z AUTO 14009G14KT 10SM -RA SCT008 BKN012 OVC019 16/14 A2966 RMK AO2 P0030
KPNM 211434Z AUTO 14012G21KT 7SM +RA SCT008 BKN012 OVC027 16/14 A2967 RMK AO2 P0027
KPNM 211415Z AUTO 14010G17KT 7SM +RA BKN010 BKN014 OVC024 16/14 A2967 RMK AO2 P0013
KPNM 211354Z AUTO 14010G14KT 10SM RA BKN010 OVC015 16/14 A2966 RMK AO2 LTG DSNT NE AND S P0002
KPNM 211334Z AUTO 14008KT 10SM -RA BKN012 OVC020 16/14 A2965 RMK AO2 LTG DSNT NE AND SW P0001
KPNM 211315Z AUTO 15012KT 7SM RA BKN020 OVC026 17/13 A2965 RMK AO2 LTG DSNT NE SW AND W P0001
KPNM 211254Z AUTO 15013G21KT 10SM OVC026 18/13 A2964 RMK AO2 LTG DSNT E THRU SW
KPNM 211234Z AUTO 15013G19KT 10SM OVC028 18/13 A2964 RMK AO2 LTG DSNT SE THRU SW
KPNM 211215Z AUTO 14012G18KT 10SM BKN030 OVC043 18/13 A2964 RMK AO2 LTG DSNT SE
KPNM 211154Z AUTO 15012G17KT 10SM SCT030 OVC039 17/12 A2964 RMK AO2 LTG DSNT S
KPNM 211135Z AUTO 14015G20KT 10SM BKN030 OVC037 17/12 A2964 RMK AO2
KPNM 211114Z AUTO 13013G17KT 10SM OVC032 17/12 A2964 RMK AO2 LTG DSNT S
KPNM 211054Z AUTO 13009G15KT 10SM OVC032 17/12 A2964 RMK AO2
KPNM 211035Z AUTO 13009G16KT 10SM OVC034 17/12 A2964 RMK AO2
KPNM 211014Z AUTO 13010G14KT 10SM SCT034 17/12 A2964 RMK AO2
KPNM 210954Z AUTO 14011G15KT 10SM CLR 17/12 A2964 RMK AO2
KPNM 210935Z AUTO 14011G15KT 10SM CLR 17/13 A2965 RMK AO2
KPNM 210914Z AUTO 14010G16KT 10SM CLR 18/13 A2966 RMK AO2
KPNM 210854Z AUTO 14009G14KT 10SM CLR 17/13 A2966 RMK AO2
KPNM 210834Z AUTO 14010G14KT 10SM CLR 17/13 A2966 RMK AO2
KPNM 210814Z AUTO 14010G16KT 10SM CLR 17/13 A2966 RMK AO2
KPNM 210755Z AUTO 13009KT 10SM -RA SCT039 SCT065 BKN070 17/13 A2967 RMK AO2 LTG DSNT S
KPNM 210734Z AUTO 14010G16KT 10SM -RA SCT041 SCT065 BKN085 18/13 A2968 RMK AO2
KPNM 210714Z AUTO 15013G16KT 10SM SCT110 18/13 A2968 RMK AO2
KPNM 210655Z AUTO 15010G18KT 10SM -RA SCT065 SCT080 BKN110 18/14 A2968 RMK AO2
KPNM 210634Z AUTO 15011G17KT 10SM SCT085 SCT110 19/13 A2968 RMK AO2
KPNM 210614Z AUTO 15015KT 10SM CLR 19/12 A2968 RMK AO2
KPNM 210555Z AUTO 16014G19KT 10SM CLR 19/12 A2968 RMK AO2
KPNM 210534Z AUTO 16016G20KT 10SM CLR 19/12 A2969 RMK AO2
KPNM 210514Z AUTO 15013G20KT 10SM SCT120 19/11 A2969 RMK AO2
KPNM 210455Z AUTO 15012G17KT 10SM SCT120 19/11 A2969 RMK AO2
KPNM 210434Z AUTO 15012G16KT 10SM CLR 19/11 A2969 RMK AO2
KPNM 210414Z AUTO 15014G18KT 10SM SCT050 19/10 A2969 RMK AO2
KPNM 210354Z AUTO 16010G20KT 10SM CLR 19/10 A2970 RMK AO2
KPNM 210334Z AUTO 15011G20KT 10SM CLR 19/09 A2969 RMK AO2
KPNM 210315Z AUTO 16011G19KT 10SM CLR 20/09 A2970 RMK AO2
KPNM 210254Z AUTO 16013G17KT 10SM CLR 20/09 A2970 RMK AO2
KPNM 210234Z AUTO 15014G21KT 10SM CLR 20/09 A2969 RMK AO2
KPNM 210215Z AUTO 15014G22KT 10SM CLR 21/09 A2969 RMK AO2
KPNM 210154Z AUTO 15016G21KT 10SM CLR 21/09 A2969 RMK AO2
KPNM 210134Z AUTO 15011G16KT 10SM CLR 21/09 A2969 RMK AO2
KPNM 210115Z AUTO 15011G17KT 10SM CLR 21/08 A2969 RMK AO2
KPNM 210054Z AUTO 15010G19KT 10SM CLR 21/08 A2969 RMK AO2
KPNM 210034Z AUTO 15010KT 10SM CLR 21/08 A2969 RMK AO2
KPNM 210014Z AUTO 15010G20KT 10SM CLR 22/08 A2969 RMK AO2
KPNM 202354Z AUTO 14011G14KT 10SM CLR 22/08 A2969 RMK AO2
KPNM 202334Z AUTO 15012G17KT 10SM CLR 22/08 A2968 RMK AO2
KPNM 202315Z AUTO 15012G19KT 10SM CLR 23/08 A2969 RMK AO2
KPNM 202254Z AUTO 15010G19KT 10SM CLR 23/09 A2969 RMK AO2
KPNM 202234Z AUTO 16015G25KT 10SM CLR 24/09 A2969 RMK AO2
KPNM 202214Z AUTO 16013G27KT 10SM CLR 25/09 A2969 RMK AO2
KPNM 202154Z AUTO 15016G22KT 10SM CLR 25/09 A2969 RMK AO2
KPNM 202135Z AUTO 16011G24KT 10SM CLR 26/09 A2970 RMK AO2
KPNM 202114Z AUTO 16018G25KT 10SM CLR 26/09 A2971 RMK AO2
KPNM 202054Z AUTO 16015G23KT 10SM CLR 26/10 A2971 RMK AO2
KPNM 202035Z AUTO 16018G21KT 10SM CLR 26/10 A2972 RMK AO2
KPNM 202014Z AUTO 15019G24KT 10SM CLR 26/11 A2972 RMK AO2
KPNM 201954Z AUTO 18015G22KT 10SM CLR 26/10 A2973 RMK AO2
KPNM 201935Z AUTO 17013G24KT 10SM CLR 25/10 A2973 RMK AO2
KPNM 201914Z AUTO 16011G21KT 10SM CLR 26/11 A2974 RMK AO2
KPNM 201854Z AUTO 16014G19KT 10SM CLR 25/11 A2975 RMK AO2
KPNM 201835Z AUTO 17013G19KT 10SM CLR 24/11 A2977 RMK AO2
KPNM 201814Z AUTO 17015G19KT 10SM CLR 23/11 A2978 RMK AO2
KPNM 201754Z AUTO 16011G16KT 10SM CLR 23/12 A2978 RMK AO2
KPNM 201734Z AUTO 16015G18KT 10SM CLR 23/12 A2979 RMK AO2
KPNM 201714Z AUTO 16014G19KT 10SM CLR 23/11 A2980 RMK AO2
KPNM 201654Z AUTO 17008G17KT 10SM CLR 22/11 A2981 RMK AO2
KPNM 201634Z AUTO 16012G17KT 10SM CLR 22/11 A2982 RMK AO2
KPNM 201614Z AUTO 17013G18KT 10SM CLR 21/11 A2983 RMK AO2
KPNM 201554Z AUTO 16010KT 10SM CLR 20/11 A2983 RMK AO2
KPNM 201534Z AUTO 17009G15KT 10SM CLR 19/11 A2983 RMK AO2
KPNM 201515Z AUTO 17011G15KT 143V203 10SM CLR 18/11 A2984 RMK AO2
KPNM 201454Z AUTO 17008G15KT 10SM CLR 18/11 A2985 RMK AO2
KPNM 201434Z AUTO 17009KT 10SM CLR 17/11 A2985 RMK AO2
KPNM 201414Z AUTO 16008KT 10SM CLR 16/11 A2985 RMK AO2
KPNM 201354Z AUTO 16007KT 10SM CLR 15/11 A2985 RMK AO2
KPNM 201335Z AUTO 16006KT 10SM CLR 14/11 A2985 RMK AO2
KPNM 201314Z AUTO 15007KT 10SM CLR 13/10 A2985 RMK AO2